Terminal Aerodrome Forecast
Issued by NWS

Home | Current Version | Previous Version | Text Only | Print | Product List | Glossary On
Versions: 1 2 3 4 5 6 7 8 9 10 11 12 13 14 15 16 17 18 19 20 21 22 23 24 25 26 27 28 29 30 31 32 33 34 35 36 37 38 39 40 41
000
FTAK31 PANC 062105 AAB
TAFAIL
TAF AMD
PAIL 062105Z 0621/0718 14005KT P6SM SCT006 BKN120
      TEMPO 0621/0623 BKN006
     FM062300 15012KT P6SM SCT040 BKN080
     FM070300 13018G26KT 6SM -SNRA OVC035
     FM070600 15020G28KT 3SM -RA BR OVC025
     FM071200 20010KT 2SM -SN BR BKN015
     FM071600 23012G18KT 5SM -SHSN BKN020=

USA.gov is the U.S. government's official web portal to all federal, state and local government web resources and services.